This is the latest recevied weather packets stored in our database for station/object SV9TNF-56. If no packets are shown the sender has not sent any weather packets the latest 10 day(s).
| Time | Temp. | Humidity | Pressure | Rain* | Wind** | Luminosity | Snow |
|---|---|---|---|---|---|---|---|
| 1787843195 | 28.33° C | 53% | 1017.6 hPa | 0 mm | 16.09 m/s, 168° | - | - |
| 1787842895 | 27.78° C | 55% | 1018 hPa | 0 mm | 12.07 m/s, 156° | - | - |
| 1787842596 | 28.33° C | 53% | 1018.3 hPa | 0 mm | 14.75 m/s, 98° | - | - |
| 1787842295 | 28.33° C | 53% | 1018.3 hPa | 0 mm | 14.75 m/s, 134° | - | - |
| 1787841995 | 28.89° C | 51% | 1018 hPa | 0 mm | 23.25 m/s, 246° | - | - |
| 1787841695 | 28.89° C | 50% | 1018 hPa | 0 mm | 15.2 m/s, 131° | - | - |
| 1787841395 | 28.89° C | 50% | 1018 hPa | 0 mm | 5.36 m/s, 133° | - | - |
| 1787841095 | 28.89° C | 51% | 1018 hPa | 0 mm | 15.2 m/s, 145° | - | - |
| 1787840795 | 28.33° C | 53% | 1018.3 hPa | 0 mm | 10.28 m/s, 114° | - | - |
| 1787840495 | 28.89° C | 52% | 1018 hPa | 0 mm | 12.07 m/s, 106° | - | - |
| 1787840194 | 29.44° C | 49% | 1018 hPa | 0 mm | 12.07 m/s, 164° | - | - |
| 1787839894 | 28.89° C | 48% | 1018.3 hPa | 0 mm | 5.81 m/s, 246° | - | - |
| 1787839594 | 28.89° C | 50% | 1018 hPa | 0 mm | 12.07 m/s, 214° | - | - |
| 1787839294 | 28.89° C | 48% | 1018 hPa | 0 mm | 9.83 m/s, 186° | - | - |
| 1787838994 | 28.89° C | 49% | 1018 hPa | 0 mm | 25.48 m/s, 144° | - | - |
| 1787838694 | 28.89° C | 50% | 1018 hPa | 0 mm | 13.86 m/s, 210° | - | - |
| 1787838394 | 28.89° C | 50% | 1018 hPa | 0 mm | 8.49 m/s, 203° | - | - |
| 1787838094 | 28.89° C | 51% | 1018 hPa | 0 mm | 12.52 m/s, 235° | - | - |
| 1787837794 | 28.89° C | 52% | 1018 hPa | 0 mm | 13.41 m/s, 126° | - | - |
| 1787837494 | 28.89° C | 52% | 1018.3 hPa | 0 mm | 7.15 m/s, 197° | - | - |
| 1787837194 | 28.89° C | 54% | 1018.3 hPa | 0 mm | 28.61 m/s, 282° | - | - |
| 1787836893 | 29.44° C | 54% | 1018.3 hPa | 0 mm | 12.52 m/s, 186° | - | - |
| 1787836593 | 29.44° C | 51% | 1018 hPa | 0 mm | 10.28 m/s, 216° | - | - |
| 1787836293 | 29.44° C | 51% | 1018 hPa | 0 mm | 12.07 m/s, 139° | - | - |
| 1787835993 | 29.44° C | 54% | 1018 hPa | 0 mm | 6.26 m/s, 311° | - | - |
* Rain latest hour (hover to see other rain measurements)
** Current wind speed in m/s (hover to see current wind gust speed)